sensor_id;sensor_type;location;lat;lon;timestamp;P1;durP1;ratioP1;P2;durP2;ratioP2
57317;SDS011;43157;50.982;18.132;2023-03-16T00:02:16;51.00;;;21.90;;
57317;SDS011;43157;50.982;18.132;2023-03-16T00:04:42;64.70;;;26.10;;
57317;SDS011;43157;50.982;18.132;2023-03-16T00:07:12;54.40;;;21.10;;
57317;SDS011;43157;50.982;18.132;2023-03-16T00:09:39;48.50;;;20.90;;
57317;SDS011;43157;50.982;18.132;2023-03-16T00:12:06;52.20;;;21.30;;
57317;SDS011;43157;50.982;18.132;2023-03-16T00:14:42;50.70;;;20.50;;
57317;SDS011;43157;50.982;18.132;2023-03-16T00:17:12;62.40;;;25.90;;
57317;SDS011;43157;50.982;18.132;2023-03-16T00:19:47;54.70;;;23.50;;
57317;SDS011;43157;50.982;18.132;2023-03-16T00:22:19;54.50;;;22.30;;
57317;SDS011;43157;50.982;18.132;2023-03-16T00:24:46;52.10;;;21.50;;
57317;SDS011;43157;50.982;18.132;2023-03-16T00:27:12;51.70;;;21.70;;
57317;SDS011;43157;50.982;18.132;2023-03-16T00:29:45;56.30;;;24.00;;
57317;SDS011;43157;50.982;18.132;2023-03-16T00:32:20;54.80;;;20.50;;
57317;SDS011;43157;50.982;18.132;2023-03-16T00:34:48;51.90;;;22.80;;
57317;SDS011;43157;50.982;18.132;2023-03-16T00:37:17;49.60;;;18.80;;
57317;SDS011;43157;50.982;18.132;2023-03-16T00:39:44;48.70;;;19.80;;
57317;SDS011;43157;50.982;18.132;2023-03-16T00:42:11;49.60;;;21.80;;
57317;SDS011;43157;50.982;18.132;2023-03-16T00:44:37;57.40;;;25.20;;
57317;SDS011;43157;50.982;18.132;2023-03-16T00:47:04;95.90;;;36.40;;
57317;SDS011;43157;50.982;18.132;2023-03-16T00:49:31;81.40;;;30.90;;
57317;SDS011;43157;50.982;18.132;2023-03-16T00:52:00;45.30;;;20.30;;
57317;SDS011;43157;50.982;18.132;2023-03-16T00:54:27;68.70;;;26.10;;
57317;SDS011;43157;50.982;18.132;2023-03-16T00:56:53;60.90;;;23.80;;
57317;SDS011;43157;50.982;18.132;2023-03-16T00:59:19;63.50;;;22.90;;
57317;SDS011;43157;50.982;18.132;2023-03-16T01:01:46;54.80;;;23.60;;
57317;SDS011;43157;50.982;18.132;2023-03-16T01:04:12;57.00;;;22.50;;
57317;SDS011;43157;50.982;18.132;2023-03-16T01:06:38;45.70;;;17.60;;
57317;SDS011;43157;50.982;18.132;2023-03-16T01:09:05;45.50;;;18.50;;
57317;SDS011;43157;50.982;18.132;2023-03-16T01:11:31;38.60;;;14.80;;
57317;SDS011;43157;50.982;18.132;2023-03-16T01:13:58;41.70;;;17.50;;
57317;SDS011;43157;50.982;18.132;2023-03-16T01:16:24;44.00;;;20.50;;
57317;SDS011;43157;50.982;18.132;2023-03-16T01:18:50;45.60;;;18.80;;
57317;SDS011;43157;50.982;18.132;2023-03-16T01:21:18;50.60;;;20.90;;
57317;SDS011;43157;50.982;18.132;2023-03-16T01:23:44;45.10;;;21.40;;
57317;SDS011;43157;50.982;18.132;2023-03-16T01:26:10;41.10;;;16.70;;
57317;SDS011;43157;50.982;18.132;2023-03-16T01:28:35;40.60;;;16.10;;
57317;SDS011;43157;50.982;18.132;2023-03-16T01:31:08;47.30;;;16.70;;
57317;SDS011;43157;50.982;18.132;2023-03-16T01:33:36;41.60;;;17.30;;
57317;SDS011;43157;50.982;18.132;2023-03-16T01:36:06;47.40;;;17.20;;
57317;SDS011;43157;50.982;18.132;2023-03-16T01:38:35;43.80;;;18.00;;
57317;SDS011;43157;50.982;18.132;2023-03-16T01:41:01;122.90;;;40.70;;
57317;SDS011;43157;50.982;18.132;2023-03-16T01:43:28;129.90;;;38.70;;
57317;SDS011;43157;50.982;18.132;2023-03-16T01:51:35;120.10;;;39.00;;
57317;SDS011;43157;50.982;18.132;2023-03-16T01:54:14;76.10;;;25.90;;
57317;SDS011;43157;50.982;18.132;2023-03-16T01:56:53;68.80;;;23.40;;
57317;SDS011;43157;50.982;18.132;2023-03-16T01:59:22;39.60;;;14.20;;
57317;SDS011;43157;50.982;18.132;2023-03-16T02:01:49;41.00;;;15.60;;
57317;SDS011;43157;50.982;18.132;2023-03-16T02:06:48;40.60;;;16.00;;
57317;SDS011;43157;50.982;18.132;2023-03-16T02:09:15;31.20;;;14.10;;
57317;SDS011;43157;50.982;18.132;2023-03-16T02:11:41;33.80;;;12.90;;
57317;SDS011;43157;50.982;18.132;2023-03-16T02:14:08;41.20;;;15.90;;
57317;SDS011;43157;50.982;18.132;2023-03-16T02:16:35;41.30;;;16.50;;
57317;SDS011;43157;50.982;18.132;2023-03-16T02:19:01;41.60;;;14.80;;
57317;SDS011;43157;50.982;18.132;2023-03-16T02:21:32;50.60;;;21.20;;
57317;SDS011;43157;50.982;18.132;2023-03-16T02:24:05;33.70;;;13.70;;
57317;SDS011;43157;50.982;18.132;2023-03-16T02:34:49;30.80;;;12.80;;
57317;SDS011;43157;50.982;18.132;2023-03-16T02:37:16;33.90;;;13.40;;
57317;SDS011;43157;50.982;18.132;2023-03-16T02:39:41;39.30;;;13.50;;
57317;SDS011;43157;50.982;18.132;2023-03-16T02:42:12;36.90;;;13.50;;
57317;SDS011;43157;50.982;18.132;2023-03-16T02:49:55;43.20;;;14.70;;
57317;SDS011;43157;50.982;18.132;2023-03-16T02:52:21;37.60;;;13.70;;
57317;SDS011;43157;50.982;18.132;2023-03-16T02:54:46;28.40;;;12.00;;
57317;SDS011;43157;50.982;18.132;2023-03-16T02:57:12;38.10;;;12.90;;
57317;SDS011;43157;50.982;18.132;2023-03-16T02:59:38;30.60;;;12.20;;
57317;SDS011;43157;50.982;18.132;2023-03-16T03:02:03;38.80;;;14.90;;
57317;SDS011;43157;50.982;18.132;2023-03-16T03:04:29;38.00;;;15.60;;
57317;SDS011;43157;50.982;18.132;2023-03-16T03:06:57;35.70;;;14.90;;
57317;SDS011;43157;50.982;18.132;2023-03-16T03:09:29;33.10;;;12.80;;
57317;SDS011;43157;50.982;18.132;2023-03-16T03:11:56;39.80;;;14.70;;
57317;SDS011;43157;50.982;18.132;2023-03-16T03:14:22;33.50;;;14.10;;
57317;SDS011;43157;50.982;18.132;2023-03-16T03:16:49;35.70;;;14.30;;
57317;SDS011;43157;50.982;18.132;2023-03-16T03:19:16;35.00;;;13.40;;
57317;SDS011;43157;50.982;18.132;2023-03-16T03:21:42;39.20;;;16.10;;
57317;SDS011;43157;50.982;18.132;2023-03-16T03:24:08;40.40;;;17.20;;
57317;SDS011;43157;50.982;18.132;2023-03-16T03:26:34;43.50;;;17.10;;
57317;SDS011;43157;50.982;18.132;2023-03-16T03:29:02;53.80;;;17.20;;
57317;SDS011;43157;50.982;18.132;2023-03-16T03:31:28;46.50;;;19.60;;
57317;SDS011;43157;50.982;18.132;2023-03-16T03:33:54;38.50;;;15.20;;
57317;SDS011;43157;50.982;18.132;2023-03-16T03:36:19;46.90;;;16.40;;
57317;SDS011;43157;50.982;18.132;2023-03-16T03:38:47;46.80;;;19.10;;
57317;SDS011;43157;50.982;18.132;2023-03-16T03:41:14;35.10;;;15.10;;
57317;SDS011;43157;50.982;18.132;2023-03-16T03:43:39;46.80;;;17.00;;
57317;SDS011;43157;50.982;18.132;2023-03-16T03:46:05;39.00;;;16.50;;
57317;SDS011;43157;50.982;18.132;2023-03-16T03:48:31;49.40;;;18.80;;
57317;SDS011;43157;50.982;18.132;2023-03-16T03:50:58;45.90;;;17.90;;
57317;SDS011;43157;50.982;18.132;2023-03-16T03:53:23;40.50;;;17.70;;
57317;SDS011;43157;50.982;18.132;2023-03-16T03:55:49;37.00;;;15.70;;
57317;SDS011;43157;50.982;18.132;2023-03-16T03:58:15;40.70;;;17.00;;
57317;SDS011;43157;50.982;18.132;2023-03-16T04:00:41;41.10;;;16.70;;
57317;SDS011;43157;50.982;18.132;2023-03-16T04:03:07;35.60;;;15.60;;
57317;SDS011;43157;50.982;18.132;2023-03-16T04:05:32;35.30;;;16.10;;
57317;SDS011;43157;50.982;18.132;2023-03-16T04:07:58;37.10;;;15.60;;
57317;SDS011;43157;50.982;18.132;2023-03-16T04:10:24;55.50;;;19.50;;
57317;SDS011;43157;50.982;18.132;2023-03-16T04:12:51;54.10;;;19.20;;
57317;SDS011;43157;50.982;18.132;2023-03-16T04:15:17;43.70;;;16.10;;
57317;SDS011;43157;50.982;18.132;2023-03-16T04:17:43;41.20;;;17.20;;
57317;SDS011;43157;50.982;18.132;2023-03-16T04:20:09;32.90;;;13.30;;
57317;SDS011;43157;50.982;18.132;2023-03-16T04:22:40;37.70;;;15.10;;
57317;SDS011;43157;50.982;18.132;2023-03-16T04:25:10;41.90;;;15.30;;
57317;SDS011;43157;50.982;18.132;2023-03-16T04:27:36;40.00;;;14.50;;
57317;SDS011;43157;50.982;18.132;2023-03-16T04:30:05;34.70;;;13.90;;
57317;SDS011;43157;50.982;18.132;2023-03-16T04:32:36;37.90;;;14.50;;
57317;SDS011;43157;50.982;18.132;2023-03-16T04:35:03;42.50;;;17.90;;
57317;SDS011;43157;50.982;18.132;2023-03-16T04:37:29;38.50;;;15.80;;
57317;SDS011;43157;50.982;18.132;2023-03-16T04:39:55;35.30;;;14.50;;
57317;SDS011;43157;50.982;18.132;2023-03-16T04:42:21;33.00;;;13.50;;
57317;SDS011;43157;50.982;18.132;2023-03-16T04:44:47;30.40;;;13.60;;
57317;SDS011;43157;50.982;18.132;2023-03-16T04:47:13;32.60;;;13.50;;
57317;SDS011;43157;50.982;18.132;2023-03-16T04:49:39;40.40;;;17.50;;
57317;SDS011;43157;50.982;18.132;2023-03-16T04:52:05;39.50;;;17.60;;
57317;SDS011;43157;50.982;18.132;2023-03-16T04:54:31;40.20;;;17.20;;
57317;SDS011;43157;50.982;18.132;2023-03-16T04:56:57;39.70;;;16.30;;
57317;SDS011;43157;50.982;18.132;2023-03-16T04:59:24;43.90;;;17.80;;
57317;SDS011;43157;50.982;18.132;2023-03-16T05:14:09;34.60;;;14.80;;
57317;SDS011;43157;50.982;18.132;2023-03-16T05:16:35;34.70;;;13.60;;
57317;SDS011;43157;50.982;18.132;2023-03-16T05:19:00;41.00;;;16.20;;
57317;SDS011;43157;50.982;18.132;2023-03-16T05:21:26;65.40;;;23.80;;
57317;SDS011;43157;50.982;18.132;2023-03-16T05:23:56;52.20;;;21.60;;
57317;SDS011;43157;50.982;18.132;2023-03-16T05:26:22;45.40;;;19.80;;
57317;SDS011;43157;50.982;18.132;2023-03-16T05:28:49;38.40;;;16.00;;
57317;SDS011;43157;50.982;18.132;2023-03-16T05:31:16;43.00;;;17.70;;
57317;SDS011;43157;50.982;18.132;2023-03-16T05:33:42;38.80;;;17.00;;
57317;SDS011;43157;50.982;18.132;2023-03-16T05:36:09;37.40;;;15.10;;
57317;SDS011;43157;50.982;18.132;2023-03-16T05:38:35;45.70;;;19.60;;
57317;SDS011;43157;50.982;18.132;2023-03-16T05:41:01;46.30;;;21.20;;
57317;SDS011;43157;50.982;18.132;2023-03-16T05:43:28;50.90;;;21.30;;
57317;SDS011;43157;50.982;18.132;2023-03-16T05:45:55;46.90;;;18.20;;
57317;SDS011;43157;50.982;18.132;2023-03-16T05:48:21;42.20;;;19.10;;
57317;SDS011;43157;50.982;18.132;2023-03-16T05:50:50;50.70;;;20.00;;
57317;SDS011;43157;50.982;18.132;2023-03-16T05:53:16;54.40;;;25.00;;
57317;SDS011;43157;50.982;18.132;2023-03-16T05:55:42;42.50;;;19.50;;
57317;SDS011;43157;50.982;18.132;2023-03-16T05:58:08;45.40;;;18.00;;
57317;SDS011;43157;50.982;18.132;2023-03-16T06:00:34;35.70;;;17.20;;
57317;SDS011;43157;50.982;18.132;2023-03-16T06:03:00;45.40;;;19.00;;
57317;SDS011;43157;50.982;18.132;2023-03-16T06:05:25;47.60;;;17.90;;
57317;SDS011;43157;50.982;18.132;2023-03-16T06:07:52;49.20;;;21.00;;
57317;SDS011;43157;50.982;18.132;2023-03-16T06:10:18;74.90;;;27.70;;
57317;SDS011;43157;50.982;18.132;2023-03-16T06:12:44;76.60;;;26.40;;
57317;SDS011;43157;50.982;18.132;2023-03-16T06:15:11;43.00;;;17.50;;
57317;SDS011;43157;50.982;18.132;2023-03-16T06:17:37;116.80;;;52.20;;
57317;SDS011;43157;50.982;18.132;2023-03-16T06:20:04;74.30;;;29.10;;
57317;SDS011;43157;50.982;18.132;2023-03-16T06:22:39;80.20;;;37.50;;
57317;SDS011;43157;50.982;18.132;2023-03-16T06:25:06;38.40;;;17.90;;
57317;SDS011;43157;50.982;18.132;2023-03-16T06:27:34;39.90;;;19.30;;
57317;SDS011;43157;50.982;18.132;2023-03-16T06:30:00;41.90;;;18.60;;
57317;SDS011;43157;50.982;18.132;2023-03-16T06:32:26;38.60;;;16.10;;
57317;SDS011;43157;50.982;18.132;2023-03-16T06:34:51;49.60;;;19.60;;
57317;SDS011;43157;50.982;18.132;2023-03-16T06:37:17;50.10;;;19.50;;
57317;SDS011;43157;50.982;18.132;2023-03-16T06:39:43;59.80;;;18.80;;
57317;SDS011;43157;50.982;18.132;2023-03-16T06:42:09;55.40;;;21.80;;
57317;SDS011;43157;50.982;18.132;2023-03-16T06:44:34;46.00;;;17.50;;
57317;SDS011;43157;50.982;18.132;2023-03-16T06:47:00;39.50;;;16.90;;
57317;SDS011;43157;50.982;18.132;2023-03-16T06:49:26;35.90;;;15.30;;
57317;SDS011;43157;50.982;18.132;2023-03-16T06:51:52;40.90;;;15.00;;
57317;SDS011;43157;50.982;18.132;2023-03-16T06:54:17;37.50;;;15.60;;
57317;SDS011;43157;50.982;18.132;2023-03-16T06:56:43;36.10;;;13.50;;
57317;SDS011;43157;50.982;18.132;2023-03-16T06:59:09;62.40;;;22.90;;
57317;SDS011;43157;50.982;18.132;2023-03-16T07:01:35;45.50;;;16.50;;
57317;SDS011;43157;50.982;18.132;2023-03-16T07:04:00;30.90;;;13.20;;
57317;SDS011;43157;50.982;18.132;2023-03-16T07:06:26;27.70;;;11.40;;
57317;SDS011;43157;50.982;18.132;2023-03-16T07:08:52;21.20;;;9.80;;
57317;SDS011;43157;50.982;18.132;2023-03-16T07:11:17;26.50;;;10.60;;
57317;SDS011;43157;50.982;18.132;2023-03-16T07:13:44;25.10;;;9.30;;
57317;SDS011;43157;50.982;18.132;2023-03-16T07:16:09;22.10;;;8.40;;
57317;SDS011;43157;50.982;18.132;2023-03-16T07:18:35;24.90;;;9.90;;
57317;SDS011;43157;50.982;18.132;2023-03-16T07:21:02;24.90;;;10.10;;
57317;SDS011;43157;50.982;18.132;2023-03-16T07:23:28;18.00;;;7.40;;
57317;SDS011;43157;50.982;18.132;2023-03-16T07:25:53;24.70;;;10.60;;
57317;SDS011;43157;50.982;18.132;2023-03-16T07:28:19;30.10;;;11.40;;
57317;SDS011;43157;50.982;18.132;2023-03-16T07:30:46;27.20;;;9.10;;
57317;SDS011;43157;50.982;18.132;2023-03-16T07:33:12;24.00;;;8.80;;
57317;SDS011;43157;50.982;18.132;2023-03-16T07:35:38;19.80;;;7.80;;
57317;SDS011;43157;50.982;18.132;2023-03-16T07:38:04;26.00;;;9.40;;
57317;SDS011;43157;50.982;18.132;2023-03-16T07:40:29;21.90;;;7.60;;
57317;SDS011;43157;50.982;18.132;2023-03-16T07:42:55;28.10;;;9.90;;
57317;SDS011;43157;50.982;18.132;2023-03-16T07:45:21;32.70;;;11.80;;
57317;SDS011;43157;50.982;18.132;2023-03-16T07:47:46;29.40;;;11.50;;
57317;SDS011;43157;50.982;18.132;2023-03-16T07:50:12;28.70;;;10.50;;
57317;SDS011;43157;50.982;18.132;2023-03-16T07:52:40;18.80;;;7.70;;
57317;SDS011;43157;50.982;18.132;2023-03-16T07:55:06;23.60;;;8.50;;
57317;SDS011;43157;50.982;18.132;2023-03-16T07:57:32;23.90;;;9.00;;
57317;SDS011;43157;50.982;18.132;2023-03-16T07:59:58;25.60;;;8.50;;
57317;SDS011;43157;50.982;18.132;2023-03-16T08:02:23;29.70;;;9.20;;
57317;SDS011;43157;50.982;18.132;2023-03-16T08:04:49;20.80;;;8.50;;
57317;SDS011;43157;50.982;18.132;2023-03-16T08:07:16;21.60;;;8.70;;
57317;SDS011;43157;50.982;18.132;2023-03-16T08:09:42;16.30;;;6.50;;
57317;SDS011;43157;50.982;18.132;2023-03-16T08:12:08;23.80;;;8.40;;
57317;SDS011;43157;50.982;18.132;2023-03-16T08:14:35;26.00;;;7.50;;
57317;SDS011;43157;50.982;18.132;2023-03-16T08:17:01;17.70;;;6.20;;
57317;SDS011;43157;50.982;18.132;2023-03-16T08:19:28;25.20;;;8.40;;
57317;SDS011;43157;50.982;18.132;2023-03-16T08:21:54;19.30;;;7.10;;
57317;SDS011;43157;50.982;18.132;2023-03-16T08:24:20;19.70;;;6.60;;
57317;SDS011;43157;50.982;18.132;2023-03-16T08:26:46;17.40;;;6.30;;
57317;SDS011;43157;50.982;18.132;2023-03-16T08:29:12;16.30;;;6.30;;
57317;SDS011;43157;50.982;18.132;2023-03-16T08:31:37;19.50;;;6.50;;
57317;SDS011;43157;50.982;18.132;2023-03-16T08:34:03;15.80;;;5.70;;
57317;SDS011;43157;50.982;18.132;2023-03-16T08:36:29;16.20;;;6.30;;
57317;SDS011;43157;50.982;18.132;2023-03-16T08:38:55;20.40;;;5.70;;
57317;SDS011;43157;50.982;18.132;2023-03-16T08:41:21;18.60;;;5.90;;
57317;SDS011;43157;50.982;18.132;2023-03-16T08:43:47;27.20;;;8.60;;
57317;SDS011;43157;50.982;18.132;2023-03-16T08:46:13;52.00;;;18.80;;
57317;SDS011;43157;50.982;18.132;2023-03-16T08:48:40;70.30;;;24.70;;
57317;SDS011;43157;50.982;18.132;2023-03-16T08:51:07;42.20;;;14.80;;
57317;SDS011;43157;50.982;18.132;2023-03-16T08:53:34;23.00;;;6.30;;
57317;SDS011;43157;50.982;18.132;2023-03-16T08:56:04;21.80;;;6.80;;
57317;SDS011;43157;50.982;18.132;2023-03-16T08:58:34;25.30;;;9.10;;
57317;SDS011;43157;50.982;18.132;2023-03-16T09:01:00;19.90;;;7.60;;
57317;SDS011;43157;50.982;18.132;2023-03-16T09:03:27;19.40;;;6.20;;
57317;SDS011;43157;50.982;18.132;2023-03-16T09:05:53;16.10;;;5.90;;
57317;SDS011;43157;50.982;18.132;2023-03-16T09:08:25;17.40;;;7.50;;
57317;SDS011;43157;50.982;18.132;2023-03-16T09:10:57;21.70;;;6.70;;
57317;SDS011;43157;50.982;18.132;2023-03-16T09:13:28;13.10;;;5.00;;
57317;SDS011;43157;50.982;18.132;2023-03-16T09:15:54;19.60;;;5.10;;
57317;SDS011;43157;50.982;18.132;2023-03-16T09:18:21;16.80;;;4.70;;
57317;SDS011;43157;50.982;18.132;2023-03-16T09:20:50;15.60;;;4.30;;
57317;SDS011;43157;50.982;18.132;2023-03-16T09:23:17;17.60;;;4.30;;
57317;SDS011;43157;50.982;18.132;2023-03-16T09:25:43;16.40;;;3.90;;
57317;SDS011;43157;50.982;18.132;2023-03-16T09:28:09;14.00;;;3.40;;
57317;SDS011;43157;50.982;18.132;2023-03-16T09:30:35;19.00;;;4.70;;
57317;SDS011;43157;50.982;18.132;2023-03-16T09:33:02;24.80;;;8.10;;
57317;SDS011;43157;50.982;18.132;2023-03-16T09:35:28;23.20;;;6.20;;
57317;SDS011;43157;50.982;18.132;2023-03-16T09:37:54;14.00;;;4.40;;
57317;SDS011;43157;50.982;18.132;2023-03-16T09:40:22;16.90;;;4.60;;
57317;SDS011;43157;50.982;18.132;2023-03-16T09:42:53;16.60;;;3.00;;
57317;SDS011;43157;50.982;18.132;2023-03-16T09:45:34;11.90;;;3.10;;
57317;SDS011;43157;50.982;18.132;2023-03-16T09:48:07;15.50;;;4.00;;
57317;SDS011;43157;50.982;18.132;2023-03-16T09:50:35;11.20;;;3.50;;
57317;SDS011;43157;50.982;18.132;2023-03-16T09:53:06;16.30;;;3.80;;
57317;SDS011;43157;50.982;18.132;2023-03-16T09:55:34;13.40;;;4.00;;
57317;SDS011;43157;50.982;18.132;2023-03-16T09:58:20;14.40;;;3.20;;
57317;SDS011;43157;50.982;18.132;2023-03-16T10:01:04;12.70;;;3.10;;
57317;SDS011;43157;50.982;18.132;2023-03-16T10:06:36;14.70;;;2.80;;
57317;SDS011;43157;50.982;18.132;2023-03-16T10:11:45;12.90;;;3.80;;
57317;SDS011;43157;50.982;18.132;2023-03-16T10:17:04;14.40;;;3.30;;
57317;SDS011;43157;50.982;18.132;2023-03-16T10:19:42;14.90;;;3.20;;
57317;SDS011;43157;50.982;18.132;2023-03-16T10:22:32;13.50;;;2.60;;
57317;SDS011;43157;50.982;18.132;2023-03-16T10:27:29;14.00;;;3.00;;
57317;SDS011;43157;50.982;18.132;2023-03-16T10:29:56;13.10;;;2.60;;
57317;SDS011;43157;50.982;18.132;2023-03-16T10:32:22;13.40;;;3.90;;
57317;SDS011;43157;50.982;18.132;2023-03-16T10:37:56;16.30;;;5.20;;
57317;SDS011;43157;50.982;18.132;2023-03-16T10:40:23;12.70;;;2.00;;
57317;SDS011;43157;50.982;18.132;2023-03-16T10:42:49;16.50;;;3.50;;
57317;SDS011;43157;50.982;18.132;2023-03-16T10:50:59;10.60;;;2.10;;
57317;SDS011;43157;50.982;18.132;2023-03-16T10:53:28;11.10;;;2.20;;
57317;SDS011;43157;50.982;18.132;2023-03-16T10:55:56;10.40;;;2.10;;
57317;SDS011;43157;50.982;18.132;2023-03-16T10:58:30;10.80;;;2.60;;
57317;SDS011;43157;50.982;18.132;2023-03-16T11:00:58;9.70;;;2.00;;
57317;SDS011;43157;50.982;18.132;2023-03-16T11:03:28;13.80;;;3.00;;
57317;SDS011;43157;50.982;18.132;2023-03-16T11:05:57;11.30;;;2.50;;
57317;SDS011;43157;50.982;18.132;2023-03-16T11:08:25;11.40;;;2.40;;
57317;SDS011;43157;50.982;18.132;2023-03-16T11:10:54;13.30;;;3.30;;
57317;SDS011;43157;50.982;18.132;2023-03-16T11:13:30;15.00;;;4.20;;
57317;SDS011;43157;50.982;18.132;2023-03-16T11:16:05;10.20;;;2.20;;
57317;SDS011;43157;50.982;18.132;2023-03-16T11:18:45;12.20;;;2.30;;
57317;SDS011;43157;50.982;18.132;2023-03-16T11:21:14;11.80;;;2.00;;
57317;SDS011;43157;50.982;18.132;2023-03-16T11:23:45;12.50;;;2.80;;
57317;SDS011;43157;50.982;18.132;2023-03-16T11:26:16;9.60;;;2.60;;
57317;SDS011;43157;50.982;18.132;2023-03-16T11:28:54;11.20;;;3.00;;
57317;SDS011;43157;50.982;18.132;2023-03-16T11:31:36;11.30;;;3.70;;
57317;SDS011;43157;50.982;18.132;2023-03-16T11:34:16;10.70;;;2.30;;
57317;SDS011;43157;50.982;18.132;2023-03-16T11:39:22;10.40;;;2.30;;
57317;SDS011;43157;50.982;18.132;2023-03-16T11:44:31;12.40;;;3.00;;
57317;SDS011;43157;50.982;18.132;2023-03-16T11:47:04;12.50;;;2.40;;
57317;SDS011;43157;50.982;18.132;2023-03-16T12:06:25;10.40;;;2.30;;
57317;SDS011;43157;50.982;18.132;2023-03-16T12:09:18;12.80;;;2.80;;
57317;SDS011;43157;50.982;18.132;2023-03-16T12:11:58;8.80;;;2.10;;
57317;SDS011;43157;50.982;18.132;2023-03-16T12:14:31;10.10;;;2.90;;
57317;SDS011;43157;50.982;18.132;2023-03-16T12:17:22;10.90;;;1.80;;
57317;SDS011;43157;50.982;18.132;2023-03-16T12:19:52;6.70;;;1.70;;
57317;SDS011;43157;50.982;18.132;2023-03-16T12:24:53;17.10;;;4.30;;
57317;SDS011;43157;50.982;18.132;2023-03-16T12:27:28;9.40;;;2.30;;
57317;SDS011;43157;50.982;18.132;2023-03-16T12:32:48;10.20;;;2.00;;
57317;SDS011;43157;50.982;18.132;2023-03-16T12:35:35;7.80;;;1.80;;
57317;SDS011;43157;50.982;18.132;2023-03-16T12:46:25;9.80;;;2.30;;
57317;SDS011;43157;50.982;18.132;2023-03-16T12:48:54;8.90;;;2.00;;
57317;SDS011;43157;50.982;18.132;2023-03-16T12:51:35;9.40;;;2.00;;
57317;SDS011;43157;50.982;18.132;2023-03-16T12:54:03;11.40;;;3.00;;
57317;SDS011;43157;50.982;18.132;2023-03-16T12:56:34;38.00;;;10.90;;
57317;SDS011;43157;50.982;18.132;2023-03-16T12:59:02;21.00;;;5.00;;
57317;SDS011;43157;50.982;18.132;2023-03-16T13:01:51;23.60;;;7.90;;
57317;SDS011;43157;50.982;18.132;2023-03-16T13:04:29;19.00;;;4.40;;
57317;SDS011;43157;50.982;18.132;2023-03-16T13:07:03;18.90;;;4.40;;
57317;SDS011;43157;50.982;18.132;2023-03-16T13:09:39;24.30;;;6.70;;
57317;SDS011;43157;50.982;18.132;2023-03-16T13:12:08;27.70;;;9.90;;
57317;SDS011;43157;50.982;18.132;2023-03-16T13:14:46;18.30;;;5.20;;
57317;SDS011;43157;50.982;18.132;2023-03-16T13:19:42;12.80;;;3.10;;
57317;SDS011;43157;50.982;18.132;2023-03-16T13:22:19;14.90;;;5.30;;
57317;SDS011;43157;50.982;18.132;2023-03-16T13:24:52;11.00;;;2.60;;
57317;SDS011;43157;50.982;18.132;2023-03-16T13:27:26;13.70;;;4.70;;
57317;SDS011;43157;50.982;18.132;2023-03-16T13:29:55;11.70;;;3.50;;
57317;SDS011;43157;50.982;18.132;2023-03-16T13:32:23;18.10;;;5.30;;
57317;SDS011;43157;50.982;18.132;2023-03-16T13:34:55;22.20;;;6.90;;
57317;SDS011;43157;50.982;18.132;2023-03-16T13:37:22;9.60;;;2.60;;
57317;SDS011;43157;50.982;18.132;2023-03-16T13:42:47;13.40;;;4.50;;
57317;SDS011;43157;50.982;18.132;2023-03-16T13:45:33;11.60;;;3.60;;
57317;SDS011;43157;50.982;18.132;2023-03-16T13:48:02;14.90;;;3.60;;
57317;SDS011;43157;50.982;18.132;2023-03-16T13:50:30;18.40;;;5.50;;
57317;SDS011;43157;50.982;18.132;2023-03-16T13:53:20;11.20;;;2.70;;
57317;SDS011;43157;50.982;18.132;2023-03-16T13:55:52;13.90;;;3.70;;
57317;SDS011;43157;50.982;18.132;2023-03-16T14:01:02;11.30;;;2.70;;
57317;SDS011;43157;50.982;18.132;2023-03-16T14:03:38;14.20;;;2.90;;
57317;SDS011;43157;50.982;18.132;2023-03-16T14:06:06;10.20;;;1.70;;
57317;SDS011;43157;50.982;18.132;2023-03-16T14:08:52;14.30;;;3.90;;
57317;SDS011;43157;50.982;18.132;2023-03-16T14:11:24;15.60;;;5.10;;
57317;SDS011;43157;50.982;18.132;2023-03-16T14:13:51;7.00;;;1.90;;
57317;SDS011;43157;50.982;18.132;2023-03-16T14:16:20;9.20;;;1.60;;
57317;SDS011;43157;50.982;18.132;2023-03-16T14:18:53;9.40;;;2.40;;
57317;SDS011;43157;50.982;18.132;2023-03-16T14:21:23;9.60;;;2.00;;
57317;SDS011;43157;50.982;18.132;2023-03-16T14:23:51;9.60;;;1.90;;
57317;SDS011;43157;50.982;18.132;2023-03-16T14:26:38;13.70;;;2.80;;
57317;SDS011;43157;50.982;18.132;2023-03-16T14:32:01;79.10;;;24.40;;
57317;SDS011;43157;50.982;18.132;2023-03-16T14:37:07;12.50;;;4.40;;
57317;SDS011;43157;50.982;18.132;2023-03-16T14:39:34;12.70;;;4.00;;
57317;SDS011;43157;50.982;18.132;2023-03-16T14:42:03;7.20;;;2.00;;
57317;SDS011;43157;50.982;18.132;2023-03-16T14:44:30;12.90;;;3.60;;
57317;SDS011;43157;50.982;18.132;2023-03-16T14:46:59;12.30;;;3.00;;
57317;SDS011;43157;50.982;18.132;2023-03-16T14:49:27;18.80;;;5.50;;
57317;SDS011;43157;50.982;18.132;2023-03-16T14:51:59;9.80;;;3.30;;
57317;SDS011;43157;50.982;18.132;2023-03-16T14:54:27;12.60;;;2.80;;
57317;SDS011;43157;50.982;18.132;2023-03-16T14:56:54;13.70;;;4.80;;
57317;SDS011;43157;50.982;18.132;2023-03-16T14:59:24;13.40;;;3.40;;
57317;SDS011;43157;50.982;18.132;2023-03-16T15:01:52;12.00;;;2.80;;
57317;SDS011;43157;50.982;18.132;2023-03-16T15:04:30;12.00;;;3.60;;
57317;SDS011;43157;50.982;18.132;2023-03-16T15:06:58;12.60;;;3.70;;
57317;SDS011;43157;50.982;18.132;2023-03-16T15:09:30;27.10;;;7.70;;
57317;SDS011;43157;50.982;18.132;2023-03-16T15:12:00;23.10;;;6.60;;
57317;SDS011;43157;50.982;18.132;2023-03-16T15:14:26;20.40;;;4.80;;
57317;SDS011;43157;50.982;18.132;2023-03-16T15:17:10;8.60;;;2.40;;
57317;SDS011;43157;50.982;18.132;2023-03-16T15:19:36;11.40;;;2.10;;
57317;SDS011;43157;50.982;18.132;2023-03-16T15:22:01;11.60;;;2.60;;
57317;SDS011;43157;50.982;18.132;2023-03-16T15:24:28;11.20;;;2.00;;
57317;SDS011;43157;50.982;18.132;2023-03-16T15:26:56;11.30;;;2.50;;
57317;SDS011;43157;50.982;18.132;2023-03-16T15:29:22;14.90;;;3.90;;
57317;SDS011;43157;50.982;18.132;2023-03-16T15:31:48;19.30;;;5.40;;
57317;SDS011;43157;50.982;18.132;2023-03-16T15:34:13;14.90;;;4.00;;
57317;SDS011;43157;50.982;18.132;2023-03-16T15:36:40;9.20;;;2.20;;
57317;SDS011;43157;50.982;18.132;2023-03-16T15:39:08;22.10;;;5.80;;
57317;SDS011;43157;50.982;18.132;2023-03-16T15:41:37;23.20;;;6.20;;
57317;SDS011;43157;50.982;18.132;2023-03-16T15:44:04;26.70;;;11.30;;
57317;SDS011;43157;50.982;18.132;2023-03-16T15:46:35;16.00;;;5.40;;
57317;SDS011;43157;50.982;18.132;2023-03-16T15:49:01;20.70;;;6.60;;
57317;SDS011;43157;50.982;18.132;2023-03-16T15:51:26;23.80;;;6.90;;
57317;SDS011;43157;50.982;18.132;2023-03-16T15:53:58;15.80;;;4.00;;
57317;SDS011;43157;50.982;18.132;2023-03-16T15:56:26;16.30;;;4.40;;
57317;SDS011;43157;50.982;18.132;2023-03-16T15:59:01;34.60;;;11.40;;
57317;SDS011;43157;50.982;18.132;2023-03-16T16:01:31;12.90;;;3.60;;
57317;SDS011;43157;50.982;18.132;2023-03-16T16:04:05;17.60;;;3.70;;
57317;SDS011;43157;50.982;18.132;2023-03-16T16:06:34;32.40;;;9.20;;
57317;SDS011;43157;50.982;18.132;2023-03-16T16:09:00;29.60;;;7.70;;